Time;durP1;ratioP1;P1;durP2;ratioP2;P2;SDS_P1;SDS_P2;PMS_P1;PMS_P2;Temp;Humidity;BMP_temperature;BMP_pressure;BME280_temperature;BME280_humidity;BME280_pressure;Samples;Min_cycle;Max_cycle;Signal;HPM_P1;HPM_P2
2023/09/08 00:01:09;;;;;;;10.77;9.67;;;16.90;99.90;;;;;;5118636;28;20452;-58
2023/09/08 00:03:36;;;;;;;10.80;9.70;;;16.90;99.90;;;;;;5117931;28;20777;-58
2023/09/08 00:06:04;;;;;;;10.97;9.87;;;16.80;99.90;;;;;;5117718;28;20466;-59
2023/09/08 00:08:33;;;;;;;11.00;10.00;;;16.90;99.90;;;;;;5117631;28;20491;-58
2023/09/08 00:11:00;;;;;;;10.50;9.30;;;16.90;99.90;;;;;;5117988;28;20879;-58
2023/09/08 00:13:27;;;;;;;10.37;9.20;;;16.80;99.90;;;;;;5117200;28;20562;-58
2023/09/08 00:15:55;;;;;;;11.23;9.73;;;16.80;99.90;;;;;;5117211;28;20506;-57
2023/09/08 00:18:22;;;;;;;11.93;10.73;;;16.80;99.90;;;;;;5117938;28;20478;-58
2023/09/08 00:20:50;;;;;;;11.70;8.87;;;16.80;99.90;;;;;;5117794;28;20466;-58
2023/09/08 00:23:17;;;;;;;11.00;9.53;;;16.70;99.90;;;;;;5117161;28;20459;-58
2023/09/08 00:25:46;;;;;;;10.20;9.20;;;16.70;99.90;;;;;;5117370;28;20513;-58
2023/09/08 00:28:13;;;;;;;9.50;8.30;;;16.60;99.90;;;;;;5117437;28;20569;-57
2023/09/08 00:30:40;;;;;;;9.50;8.70;;;16.60;99.90;;;;;;5117731;28;20780;-59
2023/09/08 00:33:08;;;;;;;9.90;8.90;;;16.60;99.90;;;;;;5117668;28;20455;-58
2023/09/08 00:35:37;;;;;;;11.53;8.13;;;16.60;99.90;;;;;;5117246;28;20513;-58
2023/09/08 00:38:05;;;;;;;10.83;9.20;;;16.70;99.90;;;;;;5117757;28;20459;-58
2023/09/08 00:40:32;;;;;;;9.67;8.77;;;16.60;99.90;;;;;;5117448;28;20519;-59
2023/09/08 00:43:01;;;;;;;10.73;9.33;;;16.70;99.90;;;;;;5117614;28;20933;-58
2023/09/08 00:45:30;;;;;;;10.20;9.20;;;16.60;99.90;;;;;;5117307;28;20458;-59
2023/09/08 00:47:58;;;;;;;11.60;9.40;;;16.70;99.90;;;;;;5117676;28;20459;-59
2023/09/08 00:50:25;;;;;;;9.10;8.30;;;16.70;99.90;;;;;;5117526;28;20809;-59
2023/09/08 00:52:52;;;;;;;9.13;8.23;;;16.60;99.90;;;;;;5117566;28;20897;-58
2023/09/08 00:55:19;;;;;;;10.30;9.30;;;16.60;99.90;;;;;;5117305;28;20857;-58
2023/09/08 00:57:46;;;;;;;10.27;9.30;;;16.60;99.90;;;;;;5117339;28;20482;-58
2023/09/08 01:00:16;;;;;;;10.00;9.00;;;16.60;99.90;;;;;;5117051;28;20455;-59
2023/09/08 01:02:45;;;;;;;10.40;9.37;;;16.50;99.90;;;;;;5120682;28;20456;-58
2023/09/08 01:05:12;;;;;;;10.03;9.10;;;16.50;99.90;;;;;;5121138;28;20516;-59
2023/09/08 01:07:40;;;;;;;10.40;9.50;;;16.50;99.90;;;;;;5121101;28;20467;-59
2023/09/08 01:10:08;;;;;;;8.97;7.77;;;16.50;99.90;;;;;;5120660;28;20501;-59
2023/09/08 01:12:35;;;;;;;10.23;8.23;;;16.50;99.90;;;;;;5121278;28;20476;-59
2023/09/08 01:15:03;;;;;;;9.50;8.60;;;16.50;99.90;;;;;;5120823;28;20434;-58
2023/09/08 01:17:31;;;;;;;9.60;8.73;;;16.60;99.90;;;;;;5121239;28;20521;-58
2023/09/08 01:20:03;;;;;;;9.60;8.70;;;16.60;99.90;;;;;;5121351;28;20459;-58
2023/09/08 01:23:11;;;;;;;9.60;8.47;;;16.60;99.90;;;;;;5121521;28;20756;-58
2023/09/08 01:25:45;;;;;;;8.70;7.90;;;16.50;99.90;;;;;;5107366;28;20469;-59
2023/09/08 01:28:15;;;;;;;10.60;9.20;;;16.40;99.90;;;;;;5121175;28;20455;-58
2023/09/08 01:30:42;;;;;;;8.83;8.03;;;16.40;99.90;;;;;;5120370;28;20593;-58
2023/09/08 01:33:09;;;;;;;10.50;8.67;;;16.40;99.90;;;;;;5121069;28;20450;-58
2023/09/08 01:35:37;;;;;;;9.27;8.43;;;16.30;99.90;;;;;;5120524;28;20459;-59
2023/09/08 01:38:04;;;;;;;10.33;8.70;;;16.30;99.90;;;;;;5120980;28;20892;-58
2023/09/08 01:40:31;;;;;;;8.90;8.00;;;16.30;99.90;;;;;;5120582;28;20454;-59
2023/09/08 01:43:00;;;;;;;9.30;8.40;;;16.30;99.90;;;;;;5121036;28;20451;-59
2023/09/08 01:45:27;;;;;;;10.83;8.97;;;16.30;99.90;;;;;;5120648;28;20463;-58
2023/09/08 01:47:54;;;;;;;9.93;9.07;;;16.30;99.90;;;;;;5120516;28;20466;-58
2023/09/08 01:50:22;;;;;;;8.87;8.07;;;16.30;99.90;;;;;;5120938;28;20932;-58
2023/09/08 01:52:49;;;;;;;10.27;8.43;;;16.30;99.90;;;;;;5120756;28;20466;-58
2023/09/08 01:55:17;;;;;;;10.40;9.40;;;16.30;99.90;;;;;;5120265;28;20459;-58
2023/09/08 01:57:44;;;;;;;10.00;8.80;;;16.20;99.90;;;;;;5120134;28;20497;-59
2023/09/08 02:00:14;;;;;;;9.40;8.53;;;16.20;99.90;;;;;;5119877;28;20426;-59
2023/09/08 02:02:41;;;;;;;9.27;8.47;;;16.20;99.90;;;;;;5120580;28;20462;-58
2023/09/08 02:05:09;;;;;;;9.60;8.70;;;16.10;99.90;;;;;;5120428;28;20455;-59
2023/09/08 02:07:36;;;;;;;9.50;8.60;;;16.10;99.90;;;;;;5119684;28;20464;-58
2023/09/08 02:10:03;;;;;;;10.33;8.90;;;16.10;99.90;;;;;;5119894;28;20527;-59
2023/09/08 02:12:30;;;;;;;10.40;9.40;;;16.10;99.90;;;;;;5119255;28;20455;-59
2023/09/08 02:14:58;;;;;;;9.60;8.60;;;16.10;99.90;;;;;;5119452;28;20555;-59
2023/09/08 02:17:26;;;;;;;9.17;7.50;;;16.00;99.90;;;;;;5119410;28;20454;-58
2023/09/08 02:19:53;;;;;;;10.13;9.23;;;16.00;99.90;;;;;;5120392;28;20444;-59
2023/09/08 02:22:22;;;;;;;9.03;8.23;;;15.90;99.90;;;;;;5119923;28;20474;-58
2023/09/08 02:24:49;;;;;;;9.27;8.37;;;15.90;99.90;;;;;;5119971;28;20723;-59
2023/09/08 02:27:16;;;;;;;10.13;9.13;;;15.90;99.90;;;;;;5119396;28;20542;-59
2023/09/08 02:29:43;;;;;;;9.67;8.77;;;15.90;99.90;;;;;;5119382;28;20498;-59
2023/09/08 02:32:10;;;;;;;10.83;9.73;;;15.80;99.90;;;;;;5119684;28;20845;-59
2023/09/08 02:34:39;;;;;;;11.00;8.80;;;15.80;99.90;;;;;;5119860;28;20462;-59
2023/09/08 02:37:06;;;;;;;11.27;10.13;;;15.70;99.90;;;;;;5119840;28;20456;-59
2023/09/08 02:39:34;;;;;;;10.40;9.40;;;15.70;99.90;;;;;;5119131;28;20482;-59
2023/09/08 02:42:01;;;;;;;10.07;9.17;;;15.70;1.00;;;;;;5119458;28;20849;-59
2023/09/08 02:44:29;;;;;;;10.00;8.70;;;15.80;1.00;;;;;;5119510;28;20456;-59
2023/09/08 02:46:56;;;;;;;10.63;9.50;;;15.70;99.90;;;;;;5118934;28;20761;-59
2023/09/08 02:49:23;;;;;;;9.27;8.37;;;15.80;1.00;;;;;;5119575;28;20493;-59
2023/09/08 02:51:52;;;;;;;10.40;9.40;;;15.80;99.90;;;;;;5119379;28;20550;-59
2023/09/08 02:54:19;;;;;;;9.93;9.13;;;15.70;1.00;;;;;;5119302;28;20459;-59
2023/09/08 02:56:46;;;;;;;9.63;8.73;;;15.80;1.00;;;;;;5119420;28;20455;-59
2023/09/08 02:59:13;;;;;;;10.23;8.70;;;15.80;99.90;;;;;;5118988;28;20462;-59
2023/09/08 03:01:40;;;;;;;10.87;9.27;;;15.70;99.90;;;;;;5118854;28;20462;-59
2023/09/08 03:04:08;;;;;;;10.93;9.67;;;15.70;99.90;;;;;;5119458;28;20733;-59
2023/09/08 03:06:36;;;;;;;10.50;9.40;;;15.80;99.90;;;;;;5119259;28;20470;-59
2023/09/08 03:09:04;;;;;;;14.13;9.53;;;15.80;99.90;;;;;;5119151;28;20456;-59
2023/09/08 03:11:31;;;;;;;11.40;10.20;;;15.70;99.90;;;;;;5118823;28;20807;-59
2023/09/08 03:13:59;;;;;;;11.30;9.67;;;15.80;99.90;;;;;;5118668;28;20462;-59
2023/09/08 03:16:26;;;;;;;10.50;9.40;;;15.70;99.90;;;;;;5119059;28;20554;-59
2023/09/08 03:18:53;;;;;;;10.40;9.40;;;15.60;99.90;;;;;;5118682;28;20462;-59
2023/09/08 03:21:20;;;;;;;10.57;9.47;;;15.50;99.90;;;;;;5118549;28;20750;-59
2023/09/08 03:23:47;;;;;;;11.30;9.30;;;15.60;99.90;;;;;;5118459;28;20456;-59
2023/09/08 03:26:16;;;;;;;10.70;9.70;;;15.50;99.90;;;;;;5117134;28;20465;-59
2023/09/08 03:28:43;;;;;;;9.87;8.67;;;15.50;99.90;;;;;;5097738;28;20460;-60
2023/09/08 03:31:11;;;;;;;9.90;9.00;;;15.70;99.90;;;;;;5098615;28;20463;-60
2023/09/08 03:33:38;;;;;;;9.40;8.40;;;15.70;99.90;;;;;;5098469;28;20865;-59
2023/09/08 03:36:06;;;;;;;10.63;9.70;;;15.70;99.90;;;;;;5098298;28;20442;-60
2023/09/08 03:38:33;;;;;;;10.67;9.73;;;15.70;99.90;;;;;;5100797;28;20484;-59
2023/09/08 03:41:00;;;;;;;10.47;9.43;;;15.70;99.90;;;;;;5118638;28;20539;-60
2023/09/08 03:43:28;;;;;;;11.80;10.30;;;15.60;99.90;;;;;;5118131;28;20461;-59
2023/09/08 03:45:57;;;;;;;9.93;9.03;;;15.60;99.90;;;;;;5100352;28;20461;-60
2023/09/08 03:48:24;;;;;;;11.17;8.57;;;15.60;99.90;;;;;;5097428;28;20457;-60
2023/09/08 03:50:51;;;;;;;9.90;8.97;;;15.40;99.90;;;;;;5097763;28;20488;-60
2023/09/08 03:53:18;;;;;;;9.00;8.03;;;15.50;1.00;;;;;;5097836;28;20738;-60
2023/09/08 03:55:45;;;;;;;9.97;9.07;;;15.40;1.00;;;;;;5097658;28;20475;-60
2023/09/08 03:58:13;;;;;;;11.00;9.70;;;15.40;99.90;;;;;;5097897;28;20555;-60
2023/09/08 04:00:41;;;;;;;9.93;8.73;;;15.40;99.90;;;;;;5097782;28;20758;-60
2023/09/08 04:03:09;;;;;;;8.90;8.00;;;15.50;99.90;;;;;;5097844;28;20462;-59
2023/09/08 04:05:36;;;;;;;9.60;8.27;;;15.40;99.90;;;;;;5097498;28;20456;-59
2023/09/08 04:08:03;;;;;;;8.73;7.90;;;15.50;99.90;;;;;;5097691;28;20881;-60
2023/09/08 04:10:30;;;;;;;9.37;7.80;;;15.50;99.90;;;;;;5109818;28;20774;-60
2023/09/08 04:12:58;;;;;;;8.83;7.63;;;15.50;99.90;;;;;;5118009;28;20451;-60
2023/09/08 04:15:25;;;;;;;10.07;8.80;;;15.50;99.90;;;;;;5117139;28;20495;-59
2023/09/08 04:17:53;;;;;;;9.40;8.43;;;15.50;99.90;;;;;;5117028;28;20466;-60
2023/09/08 04:20:21;;;;;;;9.30;8.40;;;15.40;99.90;;;;;;5117718;28;20451;-60
2023/09/08 04:22:48;;;;;;;8.63;7.83;;;15.40;99.90;;;;;;5118215;28;20554;-60
2023/09/08 04:25:15;;;;;;;8.53;7.73;;;15.40;99.90;;;;;;5117314;28;20463;-60
2023/09/08 04:27:44;;;;;;;9.67;8.60;;;15.30;99.90;;;;;;5117879;28;20875;-60
2023/09/08 04:30:12;;;;;;;9.50;8.60;;;15.20;99.90;;;;;;5117179;28;20536;-60
2023/09/08 04:32:40;;;;;;;10.40;9.40;;;15.10;99.90;;;;;;5117891;28;20764;-61
2023/09/08 04:35:09;;;;;;;10.60;9.60;;;15.20;99.90;;;;;;5118008;28;20554;-60
2023/09/08 04:37:38;;;;;;;10.93;9.80;;;15.20;99.90;;;;;;5116972;28;20906;-60
2023/09/08 04:40:07;;;;;;;10.40;9.40;;;15.20;99.90;;;;;;5117605;28;20490;-60
2023/09/08 04:42:34;;;;;;;10.90;9.90;;;15.20;99.90;;;;;;5118053;28;20459;-60
2023/09/08 04:45:01;;;;;;;10.97;9.97;;;15.20;99.90;;;;;;5117524;28;20455;-60
2023/09/08 04:47:28;;;;;;;11.60;9.83;;;15.20;99.90;;;;;;5117250;28;20456;-60
2023/09/08 04:49:55;;;;;;;9.80;8.90;;;15.20;99.90;;;;;;5117306;28;20463;-60
2023/09/08 04:52:24;;;;;;;11.30;10.10;;;15.10;99.90;;;;;;5117739;28;20883;-60
2023/09/08 04:54:51;;;;;;;11.20;10.03;;;15.10;99.90;;;;;;5117006;28;20958;-61
2023/09/08 04:57:18;;;;;;;13.70;10.80;;;15.20;99.90;;;;;;5117085;28;20452;-60
2023/09/08 04:59:45;;;;;;;11.77;10.20;;;15.20;99.90;;;;;;5117144;28;20456;-60
2023/09/08 05:02:12;;;;;;;12.00;10.90;;;15.20;99.90;;;;;;5117480;28;20753;-60
2023/09/08 05:04:39;;;;;;;13.47;11.23;;;15.20;99.90;;;;;;5117526;28;20736;-60
2023/09/08 05:07:06;;;;;;;12.03;10.83;;;15.20;99.90;;;;;;5117416;28;20455;-60
2023/09/08 05:09:35;;;;;;;13.30;11.03;;;15.20;99.90;;;;;;5117197;28;20451;-60
2023/09/08 05:12:02;;;;;;;11.80;10.57;;;15.20;99.90;;;;;;5116958;28;20474;-60
2023/09/08 05:14:29;;;;;;;14.50;12.47;;;15.20;99.90;;;;;;5116806;28;20462;-60
2023/09/08 05:16:56;;;;;;;12.70;11.50;;;15.20;99.90;;;;;;5117075;28;20455;-60
2023/09/08 05:19:24;;;;;;;13.17;11.87;;;15.20;99.90;;;;;;5117105;28;20455;-60
2023/09/08 05:21:52;;;;;;;13.20;10.30;;;15.30;99.90;;;;;;5116072;28;20451;-60
2023/09/08 05:24:20;;;;;;;11.93;10.73;;;15.20;1.00;;;;;;5117548;28;20451;-60
2023/09/08 05:26:49;;;;;;;15.37;12.20;;;15.20;1.00;;;;;;5098975;28;20468;-60
2023/09/08 05:29:16;;;;;;;12.80;11.50;;;15.30;1.00;;;;;;5096609;28;20875;-60
2023/09/08 05:31:44;;;;;;;12.77;11.53;;;15.30;99.90;;;;;;5096762;28;20580;-60
2023/09/08 05:34:11;;;;;;;12.53;11.20;;;15.40;99.90;;;;;;5097212;28;20460;-60
2023/09/08 05:36:39;;;;;;;15.43;11.27;;;15.40;99.90;;;;;;5095717;28;20463;-61
2023/09/08 05:39:07;;;;;;;12.70;11.33;;;15.50;99.90;;;;;;5102404;28;20516;-61
2023/09/08 05:41:34;;;;;;;12.43;11.13;;;15.50;99.90;;;;;;5115397;28;20746;-61
2023/09/08 05:44:03;;;;;;;13.10;11.43;;;15.50;99.90;;;;;;5131314;28;20545;-60
2023/09/08 05:46:30;;;;;;;12.97;11.67;;;15.50;99.90;;;;;;5136538;28;20459;-60
2023/09/08 05:48:58;;;;;;;14.97;11.70;;;15.60;99.90;;;;;;5139173;27;20450;-61
2023/09/08 05:51:25;;;;;;;15.73;11.20;;;15.60;99.90;;;;;;5118298;28;20462;-60
2023/09/08 05:53:52;;;;;;;12.90;11.17;;;15.70;99.90;;;;;;5118694;28;20460;-60
2023/09/08 05:56:20;;;;;;;13.17;10.93;;;15.80;1.00;;;;;;5119195;28;20434;-60
2023/09/08 05:58:48;;;;;;;13.93;10.40;;;15.90;99.90;;;;;;5119631;28;20459;-60
2023/09/08 06:01:17;;;;;;;10.60;9.50;;;16.00;99.90;;;;;;5119031;28;20455;-60
2023/09/08 06:03:44;;;;;;;10.43;9.30;;;16.10;1.00;;;;;;5118585;28;20462;-61
2023/09/08 06:06:11;;;;;;;11.07;9.33;;;16.20;1.00;;;;;;5119912;28;20452;-60
2023/09/08 06:08:38;;;;;;;10.73;9.73;;;16.30;1.00;;;;;;5120532;28;20772;-60
2023/09/08 06:11:06;;;;;;;15.60;11.13;;;16.50;1.00;;;;;;5120470;28;20487;-60
2023/09/08 06:13:33;;;;;;;13.33;10.40;;;16.60;1.00;;;;;;5120169;28;20466;-60
2023/09/08 06:16:00;;;;;;;11.93;10.07;;;16.80;99.90;;;;;;5120099;28;20455;-60
2023/09/08 06:18:31;;;;;;;11.17;10.10;;;16.90;99.90;;;;;;5120087;28;20462;-60
2023/09/08 06:20:58;;;;;;;10.73;9.50;;;17.00;99.90;;;;;;5119556;28;20451;-60
2023/09/08 06:23:25;;;;;;;11.47;9.20;;;17.20;99.90;;;;;;5119949;28;20538;-60
2023/09/08 06:25:58;;;;;;;9.30;7.90;;;17.30;99.90;;;;;;5119738;28;20498;-60
2023/09/08 06:28:26;;;;;;;9.07;7.80;;;17.40;99.90;;;;;;5120150;28;20491;-60
2023/09/08 06:30:54;;;;;;;11.07;7.30;;;17.60;99.90;;;;;;5120185;28;20487;-61
2023/09/08 06:33:22;;;;;;;8.70;7.57;;;17.90;99.90;;;;;;5119252;28;20455;-62
2023/09/08 06:35:51;;;;;;;10.00;8.33;;;18.10;99.90;;;;;;5120272;28;20864;-61
2023/09/08 06:38:18;;;;;;;9.03;7.40;;;18.40;99.90;;;;;;5119826;28;20463;-62
2023/09/08 06:40:45;;;;;;;7.90;7.03;;;18.50;8.60;;;;;;5119762;28;20448;-61
2023/09/08 06:43:13;;;;;;;8.60;7.53;;;18.70;48.80;;;;;;5119800;28;20466;-61
2023/09/08 06:45:42;;;;;;;7.63;6.93;;;18.80;1.00;;;;;;5119490;28;20458;-62
2023/09/08 06:48:09;;;;;;;9.97;7.37;;;19.00;27.40;;;;;;5119703;28;20455;-61
2023/09/08 06:50:37;;;;;;;7.63;6.80;;;19.10;1.00;;;;;;5119688;28;20498;-62
2023/09/08 06:53:05;;;;;;;9.13;8.23;;;19.30;1.00;;;;;;5119877;28;20462;-62
2023/09/08 06:55:32;;;;;;;7.90;7.00;;;19.50;1.00;;;;;;5119676;28;20466;-61
2023/09/08 06:58:00;;;;;;;7.50;6.80;;;19.70;1.00;;;;;;5119552;28;20550;-62
2023/09/08 07:00:28;;;;;;;7.47;6.70;;;20.00;1.00;;;;;;5118846;28;20455;-62
2023/09/08 07:02:55;;;;;;;9.03;6.43;;;20.40;1.00;;;;;;5118694;28;20900;-62
2023/09/08 07:05:22;;;;;;;7.93;6.07;;;20.70;1.00;;;;;;5118598;28;20461;-62
2023/09/08 07:07:50;;;;;;;7.20;6.50;;;21.00;1.00;;;;;;5119157;28;20478;-62
2023/09/08 07:10:20;;;;;;;7.30;6.60;;;21.30;1.00;;;;;;5119043;28;20498;-62
2023/09/08 07:12:49;;;;;;;6.27;5.63;;;21.50;1.00;;;;;;5119066;28;20538;-61
2023/09/08 07:15:16;;;;;;;6.70;5.90;;;21.70;99.90;;;;;;5117848;28;20463;-61
2023/09/08 07:17:43;;;;;;;8.00;6.43;;;22.00;75.30;;;;;;5118690;28;20899;-62
2023/09/08 07:20:11;;;;;;;9.00;6.00;;;22.30;45.00;;;;;;5118893;28;20458;-61
2023/09/08 07:22:39;;;;;;;6.90;6.20;;;22.50;66.30;;;;;;5118613;28;20554;-62
2023/09/08 07:25:08;;;;;;;6.23;5.17;;;22.70;1.00;;;;;;5119034;28;20725;-61
2023/09/08 07:27:37;;;;;;;6.37;5.77;;;23.00;99.90;;;;;;5118934;28;20906;-62
2023/09/08 07:30:05;;;;;;;6.10;5.60;;;23.30;99.90;;;;;;5106768;28;20940;-62
2023/09/08 07:32:32;;;;;;;6.63;6.13;;;23.50;99.90;;;;;;5096762;28;20936;-61
2023/09/08 07:35:00;;;;;;;6.33;5.77;;;23.80;99.90;;;;;;5097325;28;20495;-62
2023/09/08 07:37:27;;;;;;;6.23;5.63;;;24.00;1.00;;;;;;5096518;28;20435;-62
2023/09/08 07:39:55;;;;;;;8.47;6.53;;;24.20;1.00;;;;;;5097814;28;20571;-62
2023/09/08 07:42:25;;;;;;;7.23;6.20;;;24.40;1.00;;;;;;5097778;28;20788;-62
2023/09/08 07:44:54;;;;;;;5.80;5.00;;;24.60;1.00;;;;;;5098101;28;20464;-62
2023/09/08 07:47:21;;;;;;;5.80;5.30;;;24.90;1.00;;;;;;5097903;28;20748;-62
2023/09/08 07:49:49;;;;;;;6.80;5.83;;;25.10;1.00;;;;;;5097853;28;20463;-62
2023/09/08 07:52:17;;;;;;;6.33;5.83;;;25.30;1.00;;;;;;5097965;28;20467;-62
2023/09/08 07:54:47;;;;;;;6.90;6.20;;;25.40;99.90;;;;;;5110796;28;20507;-62
2023/09/08 07:57:14;;;;;;;8.87;5.50;;;25.60;99.90;;;;;;5117557;28;20462;-62
2023/09/08 07:59:41;;;;;;;6.47;5.87;;;25.90;99.90;;;;;;5118638;28;20470;-62
2023/09/08 08:02:10;;;;;;;5.87;5.27;;;26.00;1.00;;;;;;5117791;28;20447;-62
2023/09/08 08:04:38;;;;;;;6.27;5.73;;;26.20;1.00;;;;;;5118308;28;20499;-62
2023/09/08 08:07:05;;;;;;;6.63;6.03;;;26.30;99.90;;;;;;5118381;28;20548;-62
2023/09/08 08:09:33;;;;;;;5.97;5.33;;;26.40;1.00;;;;;;5117880;28;20459;-62
2023/09/08 08:12:01;;;;;;;6.37;5.87;;;26.80;1.00;;;;;;5117144;28;20491;-62
2023/09/08 08:14:28;;;;;;;7.60;5.43;;;27.10;1.00;;;;;;5117783;28;20729;-62
2023/09/08 08:16:55;;;;;;;7.20;6.60;;;27.20;99.90;;;;;;5117460;28;20753;-62
2023/09/08 08:19:24;;;;;;;6.57;5.90;;;27.60;99.90;;;;;;5117904;28;20459;-62
2023/09/08 08:21:51;;;;;;;5.90;5.30;;;27.70;99.90;;;;;;5117626;28;20459;-62
2023/09/08 08:24:19;;;;;;;5.57;5.07;;;27.80;99.90;;;;;;5117834;28;20766;-62
2023/09/08 08:26:46;;;;;;;6.90;6.30;;;27.80;99.90;;;;;;5105756;28;20896;-62
2023/09/08 08:29:14;;;;;;;6.33;5.77;;;28.00;99.90;;;;;;5116559;28;20965;-61
2023/09/08 08:31:42;;;;;;;6.07;5.47;;;28.20;99.90;;;;;;5116555;28;20802;-62
2023/09/08 08:34:09;;;;;;;6.60;6.00;;;28.40;99.90;;;;;;5116342;28;20947;-62
2023/09/08 08:36:38;;;;;;;6.90;6.40;;;28.50;99.90;;;;;;5116758;28;20729;-62
2023/09/08 08:39:05;;;;;;;5.90;5.40;;;28.60;99.90;;;;;;5125659;28;20562;-62
2023/09/08 08:41:37;;;;;;;5.97;5.37;;;28.80;1.00;;;;;;5123988;28;20444;-63
2023/09/08 08:44:06;;;;;;;5.60;5.10;;;29.00;99.90;;;;;;5124592;28;20532;-62
2023/09/08 08:46:35;;;;;;;6.20;5.70;;;29.10;1.00;;;;;;5131753;28;20454;-63
2023/09/08 08:49:03;;;;;;;6.10;5.60;;;29.30;99.90;;;;;;5137237;28;20875;-63
2023/09/08 08:51:32;;;;;;;9.13;6.13;;;29.40;99.90;;;;;;5137886;28;20580;-63
2023/09/08 08:54:04;;;;;;;7.57;6.00;;;29.50;99.90;;;;;;5137324;28;20458;-63
2023/09/08 08:56:32;;;;;;;5.37;4.87;;;29.70;99.90;;;;;;5138007;28;20498;-63
2023/09/08 08:59:01;;;;;;;5.70;5.30;;;29.90;99.90;;;;;;5138135;28;20941;-63
2023/09/08 09:01:29;;;;;;;5.83;5.10;;;30.10;99.90;;;;;;5137619;28;20541;-63
2023/09/08 09:03:57;;;;;;;6.57;5.20;;;30.20;99.90;;;;;;5137890;28;20815;-62
2023/09/08 09:06:25;;;;;;;5.80;5.30;;;30.20;99.90;;;;;;5137961;28;20465;-63
2023/09/08 09:08:52;;;;;;;6.17;5.67;;;30.10;99.90;;;;;;5138237;28;20814;-63
2023/09/08 09:11:21;;;;;;;7.13;5.53;;;30.20;99.90;;;;;;5137683;28;20989;-62
2023/09/08 09:13:48;;;;;;;6.97;6.20;;;30.20;75.50;;;;;;5138207;28;20450;-63
2023/09/08 09:16:15;;;;;;;6.00;5.60;;;30.40;99.90;;;;;;5137908;28;20826;-62
2023/09/08 09:18:56;;;;;;;5.80;5.40;;;30.50;99.90;;;;;;5137953;28;20454;-62
2023/09/08 09:21:24;;;;;;;6.37;5.90;;;30.60;1.00;;;;;;5128199;28;20463;-63
2023/09/08 09:23:51;;;;;;;9.07;5.83;;;30.60;1.00;;;;;;5098814;28;20671;-63
2023/09/08 09:26:27;;;;;;;5.97;5.57;;;30.60;1.00;;;;;;5099376;28;20452;-62
2023/09/08 09:28:55;;;;;;;7.70;6.20;;;30.60;21.80;;;;;;5100316;28;20717;-63
2023/09/08 09:31:26;;;;;;;8.03;6.17;;;30.90;99.90;;;;;;5099213;28;20488;-62
2023/09/08 09:34:05;;;;;;;6.47;5.97;;;31.00;99.90;;;;;;5099911;28;20542;-62
2023/09/08 09:36:32;;;;;;;8.13;6.37;;;31.00;1.00;;;;;;5100028;28;20456;-63
2023/09/08 09:39:01;;;;;;;6.10;5.60;;;31.00;99.90;;;;;;5100175;28;20494;-62
2023/09/08 09:41:31;;;;;;;8.27;5.50;;;31.10;1.00;;;;;;5100532;28;20790;-62
2023/09/08 09:43:58;;;;;;;8.63;5.83;;;31.20;99.90;;;;;;5099915;28;20460;-63
2023/09/08 09:46:28;;;;;;;6.17;5.67;;;31.30;1.00;;;;;;5098615;28;20456;-63
2023/09/08 09:48:57;;;;;;;6.17;5.60;;;31.50;27.10;;;;;;5098664;28;20456;-62
2023/09/08 09:51:24;;;;;;;6.23;5.73;;;31.20;1.00;;;;;;5098606;28;20464;-63
2023/09/08 09:53:54;;;;;;;6.20;5.70;;;31.30;99.90;;;;;;5098273;28;20459;-63
2023/09/08 09:56:23;;;;;;;5.60;5.10;;;31.50;99.90;;;;;;5099770;28;20471;-62
2023/09/08 09:58:55;;;;;;;5.87;5.37;;;31.40;99.90;;;;;;5100037;28;20538;-64
2023/09/08 10:01:25;;;;;;;6.23;5.80;;;31.50;99.90;;;;;;5100136;28;20456;-63
2023/09/08 10:03:54;;;;;;;5.90;5.50;;;31.50;1.00;;;;;;5099819;28;20456;-63
2023/09/08 10:06:22;;;;;;;6.13;5.60;;;31.50;99.90;;;;;;5099611;28;20892;-63
2023/09/08 10:08:51;;;;;;;6.00;5.50;;;31.70;99.90;;;;;;5100016;28;20881;-63
2023/09/08 10:11:23;;;;;;;9.40;5.40;;;32.00;99.90;;;;;;5099324;28;20455;-63
2023/09/08 10:13:54;;;;;;;6.20;5.70;;;32.10;1.00;;;;;;5099727;28;20462;-62
2023/09/08 10:16:22;;;;;;;6.63;6.03;;;32.30;99.90;;;;;;5099068;28;20554;-62
2023/09/08 10:18:52;;;;;;;6.27;5.40;;;32.50;99.90;;;;;;5104070;28;20516;-62
2023/09/08 10:21:22;;;;;;;6.67;5.73;;;32.50;1.00;;;;;;5118170;28;20868;-62
2023/09/08 10:23:54;;;;;;;6.43;5.93;;;32.50;85.20;;;;;;5117129;28;20458;-62
2023/09/08 10:26:25;;;;;;;6.50;5.90;;;32.50;40.10;;;;;;5117669;28;20458;-62
2023/09/08 10:28:56;;;;;;;6.40;5.80;;;32.50;99.90;;;;;;5117234;28;20895;-63
2023/09/08 10:31:26;;;;;;;6.50;5.90;;;32.70;1.00;;;;;;5111754;28;20512;-63
2023/09/08 10:33:54;;;;;;;6.70;5.90;;;32.90;99.90;;;;;;5116060;28;20459;-62
2023/09/08 10:36:22;;;;;;;7.07;6.57;;;33.00;1.00;;;;;;5114679;28;20771;-63
2023/09/08 10:38:51;;;;;;;5.90;5.40;;;33.10;1.00;;;;;;5122712;27;20478;-62
2023/09/08 10:41:32;;;;;;;6.53;6.13;;;33.30;99.90;;;;;;5135248;27;20757;-63
2023/09/08 10:44:04;;;;;;;7.20;6.20;;;33.60;99.90;;;;;;5135751;27;20457;-62
2023/09/08 10:46:34;;;;;;;6.47;5.97;;;33.70;99.90;;;;;;5135396;27;20759;-63
2023/09/08 10:49:06;;;;;;;12.30;6.20;;;33.80;99.90;;;;;;5129534;27;20717;-62
2023/09/08 10:51:34;;;;;;;6.23;5.73;;;33.90;99.90;;;;;;5114664;28;20489;-63
2023/09/08 10:54:02;;;;;;;6.70;6.20;;;33.80;99.90;;;;;;5114643;28;20755;-62
2023/09/08 10:56:30;;;;;;;7.13;6.63;;;33.50;99.90;;;;;;5117335;28;20458;-60
2023/09/08 10:59:02;;;;;;;6.23;5.73;;;33.40;99.90;;;;;;5117554;28;20455;-63
2023/09/08 11:01:30;;;;;;;6.40;5.80;;;33.20;99.90;;;;;;5116585;28;20735;-62
2023/09/08 11:04:00;;;;;;;6.70;6.20;;;33.00;99.90;;;;;;5117525;28;20451;-62
2023/09/08 11:06:30;;;;;;;6.60;6.00;;;33.10;99.90;;;;;;5117083;28;20459;-63
2023/09/08 11:09:06;;;;;;;7.10;6.50;;;33.30;99.90;;;;;;5117555;28;20459;-63
2023/09/08 11:11:36;;;;;;;5.63;5.10;;;33.70;99.90;;;;;;5118677;28;20454;-63
2023/09/08 11:14:05;;;;;;;5.63;5.23;;;33.80;99.90;;;;;;5117346;28;20538;-62
2023/09/08 11:16:33;;;;;;;6.20;5.50;;;33.80;99.90;;;;;;5116832;28;20486;-61
2023/09/08 11:19:01;;;;;;;6.47;5.97;;;33.90;99.90;;;;;;5117183;28;20898;-62
2023/09/08 11:21:34;;;;;;;5.93;5.40;;;34.10;99.90;;;;;;5117248;28;20508;-62
2023/09/08 11:24:02;;;;;;;5.60;5.20;;;34.20;99.90;;;;;;5117249;28;20494;-63
2023/09/08 11:26:29;;;;;;;6.43;5.93;;;34.10;99.90;;;;;;5117411;28;20869;-63
2023/09/08 11:28:56;;;;;;;7.40;5.60;;;34.00;99.90;;;;;;5117225;28;20455;-63
2023/09/08 11:31:25;;;;;;;6.20;5.73;;;33.90;99.90;;;;;;5117762;28;20461;-62
2023/09/08 11:33:56;;;;;;;8.20;5.20;;;34.20;99.90;;;;;;5117678;28;20784;-63
2023/09/08 11:36:23;;;;;;;6.17;5.67;;;34.40;99.90;;;;;;5118814;28;20458;-63
2023/09/08 11:38:50;;;;;;;5.50;5.00;;;34.50;67.10;;;;;;5118339;28;20497;-63
2023/09/08 11:41:22;;;;;;;5.73;5.13;;;34.40;99.90;;;;;;5118444;28;20562;-64
2023/09/08 11:43:50;;;;;;;7.13;5.47;;;34.50;99.90;;;;;;5116998;28;20747;-62
2023/09/08 11:46:18;;;;;;;6.80;6.20;;;34.50;99.90;;;;;;5116402;28;20546;-63
2023/09/08 11:48:47;;;;;;;5.40;4.90;;;34.50;99.90;;;;;;5117535;28;20485;-59
2023/09/08 11:51:15;;;;;;;5.80;5.30;;;34.10;99.90;;;;;;5113842;28;20473;-63
2023/09/08 11:53:43;;;;;;;7.40;6.77;;;34.10;99.90;;;;;;5112837;28;20518;-61
2023/09/08 11:56:11;;;;;;;6.10;5.60;;;34.10;99.90;;;;;;5114251;28;20471;-63
2023/09/08 11:58:38;;;;;;;6.10;5.50;;;33.90;99.90;;;;;;5116107;28;20455;-62
2023/09/08 12:01:06;;;;;;;6.83;6.23;;;34.00;99.90;;;;;;5115357;28;20474;-63
2023/09/08 12:03:33;;;;;;;5.90;5.40;;;34.10;99.90;;;;;;5117598;28;20462;-62
2023/09/08 12:06:03;;;;;;;6.57;6.07;;;34.10;99.90;;;;;;5117610;28;20455;-63
2023/09/08 12:08:31;;;;;;;6.53;5.90;;;34.20;99.90;;;;;;5116731;28;20561;-62
2023/09/08 12:10:58;;;;;;;7.27;6.03;;;34.00;99.90;;;;;;5115022;28;20881;-62
2023/09/08 12:13:25;;;;;;;6.40;5.90;;;33.90;99.90;;;;;;5114012;28;20487;-62
2023/09/08 12:15:53;;;;;;;7.07;4.97;;;34.20;99.90;;;;;;5114901;28;20462;-62
2023/09/08 12:18:20;;;;;;;5.43;5.03;;;34.30;99.90;;;;;;5112993;28;20588;-63
2023/09/08 12:20:47;;;;;;;6.90;6.30;;;34.20;99.90;;;;;;5113703;28;20454;-63
2023/09/08 12:23:20;;;;;;;6.80;6.30;;;34.40;99.90;;;;;;5115981;28;20776;-63
2023/09/08 12:25:48;;;;;;;5.97;5.47;;;34.70;99.90;;;;;;5117366;28;20883;-63
2023/09/08 12:28:17;;;;;;;5.97;5.37;;;34.70;99.90;;;;;;5116774;28;20523;-63
2023/09/08 12:30:45;;;;;;;5.90;5.40;;;34.90;99.90;;;;;;5114480;28;20479;-62
2023/09/08 12:33:16;;;;;;;5.70;5.20;;;34.80;99.90;;;;;;5114173;28;20487;-63
2023/09/08 12:35:45;;;;;;;5.90;5.50;;;35.00;99.90;;;;;;5107021;28;20500;-63
2023/09/08 12:38:14;;;;;;;5.97;5.43;;;34.80;99.90;;;;;;5115312;28;20543;-63
2023/09/08 12:40:42;;;;;;;6.10;5.60;;;34.70;99.90;;;;;;5115490;28;20430;-63
2023/09/08 12:43:12;;;;;;;6.40;5.43;;;34.50;99.90;;;;;;5114442;28;20486;-62
2023/09/08 12:45:39;;;;;;;7.10;6.50;;;34.80;99.90;;;;;;5114655;28;20549;-63
2023/09/08 12:48:08;;;;;;;5.80;5.30;;;35.00;99.90;;;;;;5113617;28;20454;-63